sensor_id;sensor_type;location;lat;lon;timestamp;temperature;humidity
29855;DHT22;16733;48.738;9.106;2023-03-21T00:05:06;10.00;99.90
29855;DHT22;16733;48.738;9.106;2023-03-21T00:07:31;10.00;99.90
29855;DHT22;16733;48.738;9.106;2023-03-21T00:13:19;10.00;99.90
29855;DHT22;16733;48.738;9.106;2023-03-21T00:15:44;10.10;99.90
29855;DHT22;16733;48.738;9.106;2023-03-21T00:21:40;10.20;99.90
29855;DHT22;16733;48.738;9.106;2023-03-21T00:24:07;10.20;99.90
29855;DHT22;16733;48.738;9.106;2023-03-21T00:29:55;10.20;99.90
29855;DHT22;16733;48.738;9.106;2023-03-21T00:32:21;10.20;99.90
29855;DHT22;16733;48.738;9.106;2023-03-21T00:34:47;10.20;99.90
29855;DHT22;16733;48.738;9.106;2023-03-21T00:40:36;10.20;99.90
29855;DHT22;16733;48.738;9.106;2023-03-21T00:43:01;10.20;99.90
29855;DHT22;16733;48.738;9.106;2023-03-21T00:45:27;10.20;99.90
29855;DHT22;16733;48.738;9.106;2023-03-21T00:47:52;10.20;99.90
29855;DHT22;16733;48.738;9.106;2023-03-21T00:50:18;10.20;99.90
29855;DHT22;16733;48.738;9.106;2023-03-21T00:52:44;10.20;99.90
29855;DHT22;16733;48.738;9.106;2023-03-21T00:55:16;10.20;99.90
29855;DHT22;16733;48.738;9.106;2023-03-21T00:57:42;10.20;99.90
29855;DHT22;16733;48.738;9.106;2023-03-21T01:03:32;10.20;99.90
29855;DHT22;16733;48.738;9.106;2023-03-21T01:09:28;10.10;99.90
29855;DHT22;16733;48.738;9.106;2023-03-21T01:11:54;10.10;99.90
29855;DHT22;16733;48.738;9.106;2023-03-21T01:14:21;10.00;99.90
29855;DHT22;16733;48.738;9.106;2023-03-21T01:16:47;10.00;99.90
29855;DHT22;16733;48.738;9.106;2023-03-21T01:19:15;10.10;99.90
29855;DHT22;16733;48.738;9.106;2023-03-21T01:21:42;10.10;99.90
29855;DHT22;16733;48.738;9.106;2023-03-21T01:24:08;10.10;99.90
29855;DHT22;16733;48.738;9.106;2023-03-21T01:26:34;10.10;99.90
29855;DHT22;16733;48.738;9.106;2023-03-21T01:32:23;10.10;99.90
29855;DHT22;16733;48.738;9.106;2023-03-21T01:34:49;10.10;99.90
29855;DHT22;16733;48.738;9.106;2023-03-21T01:37:15;10.10;99.90
29855;DHT22;16733;48.738;9.106;2023-03-21T01:39:43;10.10;99.90
29855;DHT22;16733;48.738;9.106;2023-03-21T01:42:12;10.10;99.90
29855;DHT22;16733;48.738;9.106;2023-03-21T01:44:57;10.10;99.90
29855;DHT22;16733;48.738;9.106;2023-03-21T01:47:23;10.10;99.90
29855;DHT22;16733;48.738;9.106;2023-03-21T01:49:51;10.10;99.90
29855;DHT22;16733;48.738;9.106;2023-03-21T01:55:41;10.10;99.90
29855;DHT22;16733;48.738;9.106;2023-03-21T01:58:09;10.10;99.90
29855;DHT22;16733;48.738;9.106;2023-03-21T02:03:57;10.10;99.90
29855;DHT22;16733;48.738;9.106;2023-03-21T02:09:21;10.10;99.90
29855;DHT22;16733;48.738;9.106;2023-03-21T02:11:48;10.10;99.90
29855;DHT22;16733;48.738;9.106;2023-03-21T02:14:16;10.10;99.90
29855;DHT22;16733;48.738;9.106;2023-03-21T02:25:08;10.00;99.90
29855;DHT22;16733;48.738;9.106;2023-03-21T02:27:50;10.00;99.90
29855;DHT22;16733;48.738;9.106;2023-03-21T02:36:27;10.00;99.90
29855;DHT22;16733;48.738;9.106;2023-03-21T02:39:07;9.90;99.90
29855;DHT22;16733;48.738;9.106;2023-03-21T02:47:01;9.90;99.90
29855;DHT22;16733;48.738;9.106;2023-03-21T02:49:43;9.90;99.90
29855;DHT22;16733;48.738;9.106;2023-03-21T02:52:14;9.90;99.90
29855;DHT22;16733;48.738;9.106;2023-03-21T02:54:43;9.90;99.90
29855;DHT22;16733;48.738;9.106;2023-03-21T02:57:09;9.80;99.90
29855;DHT22;16733;48.738;9.106;2023-03-21T02:59:35;9.80;99.90
29855;DHT22;16733;48.738;9.106;2023-03-21T03:02:02;9.80;99.90
29855;DHT22;16733;48.738;9.106;2023-03-21T03:04:28;9.80;99.90
29855;DHT22;16733;48.738;9.106;2023-03-21T03:15:34;9.80;99.90
29855;DHT22;16733;48.738;9.106;2023-03-21T03:18:34;9.80;99.90
29855;DHT22;16733;48.738;9.106;2023-03-21T03:21:10;9.70;99.90
29855;DHT22;16733;48.738;9.106;2023-03-21T03:26:26;9.70;99.90
29855;DHT22;16733;48.738;9.106;2023-03-21T03:28:54;9.60;99.90
29855;DHT22;16733;48.738;9.106;2023-03-21T03:31:26;9.70;99.90
29855;DHT22;16733;48.738;9.106;2023-03-21T03:33:56;9.60;99.90
29855;DHT22;16733;48.738;9.106;2023-03-21T03:36:28;9.60;99.90
29855;DHT22;16733;48.738;9.106;2023-03-21T03:38:56;9.60;99.90
29855;DHT22;16733;48.738;9.106;2023-03-21T03:41:25;9.60;99.90
29855;DHT22;16733;48.738;9.106;2023-03-21T03:43:55;9.60;99.90
29855;DHT22;16733;48.738;9.106;2023-03-21T03:49:32;9.50;99.90
29855;DHT22;16733;48.738;9.106;2023-03-21T03:54:36;9.50;99.90
29855;DHT22;16733;48.738;9.106;2023-03-21T04:00:24;9.50;99.90
29855;DHT22;16733;48.738;9.106;2023-03-21T04:02:51;9.50;99.90
29855;DHT22;16733;48.738;9.106;2023-03-21T04:08:39;9.40;99.90
29855;DHT22;16733;48.738;9.106;2023-03-21T04:11:05;9.40;99.90
29855;DHT22;16733;48.738;9.106;2023-03-21T04:13:31;9.40;99.90
29855;DHT22;16733;48.738;9.106;2023-03-21T04:15:57;9.40;99.90
29855;DHT22;16733;48.738;9.106;2023-03-21T04:18:23;9.40;99.90
29855;DHT22;16733;48.738;9.106;2023-03-21T04:20:49;9.40;99.90
29855;DHT22;16733;48.738;9.106;2023-03-21T04:23:16;9.40;99.90
29855;DHT22;16733;48.738;9.106;2023-03-21T04:25:44;9.40;99.90
29855;DHT22;16733;48.738;9.106;2023-03-21T04:31:33;9.40;99.90
29855;DHT22;16733;48.738;9.106;2023-03-21T04:34:02;9.40;99.90
29855;DHT22;16733;48.738;9.106;2023-03-21T04:36:28;9.30;99.90
29855;DHT22;16733;48.738;9.106;2023-03-21T04:39:04;9.30;99.90
29855;DHT22;16733;48.738;9.106;2023-03-21T04:41:34;9.20;99.90
29855;DHT22;16733;48.738;9.106;2023-03-21T04:44:01;9.20;99.90
29855;DHT22;16733;48.738;9.106;2023-03-21T04:46:27;9.10;99.90
29855;DHT22;16733;48.738;9.106;2023-03-21T04:48:53;9.10;99.90
29855;DHT22;16733;48.738;9.106;2023-03-21T04:54:41;9.00;99.90
29855;DHT22;16733;48.738;9.106;2023-03-21T04:57:06;8.90;99.90
29855;DHT22;16733;48.738;9.106;2023-03-21T05:02:54;8.70;99.90
29855;DHT22;16733;48.738;9.106;2023-03-21T05:05:22;8.70;99.90
29855;DHT22;16733;48.738;9.106;2023-03-21T05:11:10;8.60;99.90
29855;DHT22;16733;48.738;9.106;2023-03-21T05:13:35;8.50;99.90
29855;DHT22;16733;48.738;9.106;2023-03-21T05:16:01;8.50;99.90
29855;DHT22;16733;48.738;9.106;2023-03-21T05:21:49;8.40;99.90
29855;DHT22;16733;48.738;9.106;2023-03-21T05:24:17;8.30;99.90
29855;DHT22;16733;48.738;9.106;2023-03-21T05:30:12;8.20;99.90
29855;DHT22;16733;48.738;9.106;2023-03-21T05:32:38;8.20;99.90
29855;DHT22;16733;48.738;9.106;2023-03-21T05:35:04;8.20;99.90
29855;DHT22;16733;48.738;9.106;2023-03-21T05:37:30;8.20;99.90
29855;DHT22;16733;48.738;9.106;2023-03-21T05:39:55;8.20;99.90
29855;DHT22;16733;48.738;9.106;2023-03-21T05:42:21;8.20;99.90
29855;DHT22;16733;48.738;9.106;2023-03-21T05:44:47;8.20;99.90
29855;DHT22;16733;48.738;9.106;2023-03-21T05:47:14;8.20;99.90
29855;DHT22;16733;48.738;9.106;2023-03-21T05:53:02;8.20;99.90
29855;DHT22;16733;48.738;9.106;2023-03-21T05:55:28;8.20;99.90
29855;DHT22;16733;48.738;9.106;2023-03-21T06:01:15;8.30;99.90
29855;DHT22;16733;48.738;9.106;2023-03-21T06:03:41;8.30;99.90
29855;DHT22;16733;48.738;9.106;2023-03-21T06:06:07;8.30;99.90
29855;DHT22;16733;48.738;9.106;2023-03-21T06:11:55;8.30;99.90
29855;DHT22;16733;48.738;9.106;2023-03-21T06:14:22;8.40;99.90
29855;DHT22;16733;48.738;9.106;2023-03-21T06:16:48;8.40;99.90
29855;DHT22;16733;48.738;9.106;2023-03-21T06:19:15;8.40;99.90
29855;DHT22;16733;48.738;9.106;2023-03-21T06:21:41;8.40;99.90
29855;DHT22;16733;48.738;9.106;2023-03-21T06:24:07;8.40;99.90
29855;DHT22;16733;48.738;9.106;2023-03-21T06:26:32;8.50;99.90
29855;DHT22;16733;48.738;9.106;2023-03-21T06:28:58;8.50;99.90
29855;DHT22;16733;48.738;9.106;2023-03-21T06:31:24;8.50;99.90
29855;DHT22;16733;48.738;9.106;2023-03-21T06:33:51;8.50;99.90
29855;DHT22;16733;48.738;9.106;2023-03-21T06:36:17;8.50;99.90
29855;DHT22;16733;48.738;9.106;2023-03-21T06:38:43;8.50;99.90
29855;DHT22;16733;48.738;9.106;2023-03-21T06:41:09;8.50;99.90
29855;DHT22;16733;48.738;9.106;2023-03-21T06:46:57;8.50;99.90
29855;DHT22;16733;48.738;9.106;2023-03-21T06:49:22;8.50;99.90
29855;DHT22;16733;48.738;9.106;2023-03-21T06:51:48;8.60;99.90
29855;DHT22;16733;48.738;9.106;2023-03-21T06:54:14;8.60;99.90
29855;DHT22;16733;48.738;9.106;2023-03-21T06:56:42;8.70;99.90
29855;DHT22;16733;48.738;9.106;2023-03-21T06:59:07;8.70;99.90
29855;DHT22;16733;48.738;9.106;2023-03-21T07:01:33;8.80;99.90
29855;DHT22;16733;48.738;9.106;2023-03-21T07:04:00;8.90;99.90
29855;DHT22;16733;48.738;9.106;2023-03-21T07:06:26;8.90;99.90
29855;DHT22;16733;48.738;9.106;2023-03-21T07:08:53;9.00;99.90
29855;DHT22;16733;48.738;9.106;2023-03-21T07:11:20;9.10;99.90
29855;DHT22;16733;48.738;9.106;2023-03-21T07:13:47;9.30;99.90
29855;DHT22;16733;48.738;9.106;2023-03-21T07:16:14;9.40;99.90
29855;DHT22;16733;48.738;9.106;2023-03-21T07:18:40;9.50;99.90
29855;DHT22;16733;48.738;9.106;2023-03-21T07:24:28;9.70;99.90
29855;DHT22;16733;48.738;9.106;2023-03-21T07:26:54;9.80;99.90
29855;DHT22;16733;48.738;9.106;2023-03-21T07:29:20;9.80;99.90
29855;DHT22;16733;48.738;9.106;2023-03-21T07:31:48;9.90;99.90
29855;DHT22;16733;48.738;9.106;2023-03-21T07:34:14;10.00;99.90
29855;DHT22;16733;48.738;9.106;2023-03-21T07:36:41;10.10;99.90
29855;DHT22;16733;48.738;9.106;2023-03-21T07:39:07;10.20;99.90
29855;DHT22;16733;48.738;9.106;2023-03-21T07:41:32;10.30;99.90
29855;DHT22;16733;48.738;9.106;2023-03-21T07:43:58;10.40;99.90
29855;DHT22;16733;48.738;9.106;2023-03-21T07:46:23;10.50;99.90
29855;DHT22;16733;48.738;9.106;2023-03-21T07:48:52;10.60;99.90
29855;DHT22;16733;48.738;9.106;2023-03-21T07:51:18;10.70;99.90
29855;DHT22;16733;48.738;9.106;2023-03-21T07:53:43;10.80;99.90
29855;DHT22;16733;48.738;9.106;2023-03-21T07:56:12;10.90;99.90
29855;DHT22;16733;48.738;9.106;2023-03-21T07:58:38;10.90;99.90
29855;DHT22;16733;48.738;9.106;2023-03-21T08:01:04;11.00;99.90
29855;DHT22;16733;48.738;9.106;2023-03-21T08:03:29;11.10;99.90
29855;DHT22;16733;48.738;9.106;2023-03-21T08:05:58;11.10;99.90
29855;DHT22;16733;48.738;9.106;2023-03-21T08:08:25;11.20;99.90
29855;DHT22;16733;48.738;9.106;2023-03-21T08:10:51;11.20;99.90
29855;DHT22;16733;48.738;9.106;2023-03-21T08:16:38;11.20;99.90
29855;DHT22;16733;48.738;9.106;2023-03-21T08:19:04;11.20;99.90
29855;DHT22;16733;48.738;9.106;2023-03-21T08:35:24;11.50;99.90
29855;DHT22;16733;48.738;9.106;2023-03-21T08:37:50;11.50;99.90
29855;DHT22;16733;48.738;9.106;2023-03-21T08:40:17;11.70;99.90
29855;DHT22;16733;48.738;9.106;2023-03-21T08:46:05;11.80;99.90
29855;DHT22;16733;48.738;9.106;2023-03-21T08:48:31;11.90;99.90
29855;DHT22;16733;48.738;9.106;2023-03-21T08:54:20;12.00;99.90
29855;DHT22;16733;48.738;9.106;2023-03-21T08:56:46;12.20;99.90
29855;DHT22;16733;48.738;9.106;2023-03-21T08:59:12;12.30;99.90
29855;DHT22;16733;48.738;9.106;2023-03-21T09:01:38;12.40;99.90
29855;DHT22;16733;48.738;9.106;2023-03-21T09:04:03;12.50;99.90
29855;DHT22;16733;48.738;9.106;2023-03-21T09:06:32;12.60;99.90
29855;DHT22;16733;48.738;9.106;2023-03-21T09:08:58;12.70;99.90
29855;DHT22;16733;48.738;9.106;2023-03-21T09:11:24;12.70;99.90
29855;DHT22;16733;48.738;9.106;2023-03-21T09:13:49;12.70;99.90
29855;DHT22;16733;48.738;9.106;2023-03-21T09:16:15;12.80;99.90
29855;DHT22;16733;48.738;9.106;2023-03-21T09:18:41;12.90;99.90
29855;DHT22;16733;48.738;9.106;2023-03-21T09:21:12;12.90;99.90
29855;DHT22;16733;48.738;9.106;2023-03-21T09:23:42;13.00;99.90
29855;DHT22;16733;48.738;9.106;2023-03-21T09:26:11;13.10;99.90
29855;DHT22;16733;48.738;9.106;2023-03-21T09:28:38;13.20;99.90
29855;DHT22;16733;48.738;9.106;2023-03-21T09:31:05;13.30;99.90
29855;DHT22;16733;48.738;9.106;2023-03-21T09:33:32;13.40;99.90
29855;DHT22;16733;48.738;9.106;2023-03-21T09:35:59;13.50;99.90
29855;DHT22;16733;48.738;9.106;2023-03-21T09:38:26;13.60;99.90
29855;DHT22;16733;48.738;9.106;2023-03-21T09:52:18;14.10;99.90
29855;DHT22;16733;48.738;9.106;2023-03-21T09:54:46;14.10;99.90
29855;DHT22;16733;48.738;9.106;2023-03-21T09:57:30;14.20;99.90
29855;DHT22;16733;48.738;9.106;2023-03-21T10:00:02;14.30;99.90
29855;DHT22;16733;48.738;9.106;2023-03-21T10:02:46;14.40;99.90
29855;DHT22;16733;48.738;9.106;2023-03-21T10:05:22;14.40;99.90
29855;DHT22;16733;48.738;9.106;2023-03-21T10:10:31;14.40;99.90
29855;DHT22;16733;48.738;9.106;2023-03-21T10:12:59;14.40;99.90
29855;DHT22;16733;48.738;9.106;2023-03-21T10:15:26;14.40;99.90
29855;DHT22;16733;48.738;9.106;2023-03-21T10:18:01;14.60;99.90
29855;DHT22;16733;48.738;9.106;2023-03-21T10:23:50;14.90;99.90
29855;DHT22;16733;48.738;9.106;2023-03-21T10:26:19;14.90;99.90
29855;DHT22;16733;48.738;9.106;2023-03-21T10:32:10;15.10;99.90
29855;DHT22;16733;48.738;9.106;2023-03-21T10:34:49;15.10;99.90
29855;DHT22;16733;48.738;9.106;2023-03-21T10:40:37;15.30;99.90
29855;DHT22;16733;48.738;9.106;2023-03-21T10:46:25;15.40;99.90
29855;DHT22;16733;48.738;9.106;2023-03-21T10:48:52;15.40;99.90
29855;DHT22;16733;48.738;9.106;2023-03-21T10:51:25;15.50;99.90
29855;DHT22;16733;48.738;9.106;2023-03-21T10:53:58;15.70;99.90
29855;DHT22;16733;48.738;9.106;2023-03-21T10:56:29;15.70;99.90
29855;DHT22;16733;48.738;9.106;2023-03-21T10:58:58;15.60;99.90
29855;DHT22;16733;48.738;9.106;2023-03-21T11:01:45;15.60;99.90
29855;DHT22;16733;48.738;9.106;2023-03-21T11:04:19;15.70;99.90
29855;DHT22;16733;48.738;9.106;2023-03-21T11:06:50;15.60;99.90
29855;DHT22;16733;48.738;9.106;2023-03-21T11:09:18;15.70;99.90
29855;DHT22;16733;48.738;9.106;2023-03-21T11:12:00;15.70;99.90
29855;DHT22;16733;48.738;9.106;2023-03-21T11:17:48;15.70;99.90
29855;DHT22;16733;48.738;9.106;2023-03-21T11:20:17;15.70;99.90
29855;DHT22;16733;48.738;9.106;2023-03-21T11:22:44;15.70;99.90
29855;DHT22;16733;48.738;9.106;2023-03-21T11:25:49;15.70;99.90
29855;DHT22;16733;48.738;9.106;2023-03-21T11:28:19;15.70;99.90
29855;DHT22;16733;48.738;9.106;2023-03-21T11:30:50;15.70;99.90
29855;DHT22;16733;48.738;9.106;2023-03-21T11:33:17;15.60;99.90
29855;DHT22;16733;48.738;9.106;2023-03-21T11:35:43;15.70;99.90
29855;DHT22;16733;48.738;9.106;2023-03-21T11:38:31;15.70;99.90
29855;DHT22;16733;48.738;9.106;2023-03-21T11:40:59;15.80;99.90
29855;DHT22;16733;48.738;9.106;2023-03-21T11:43:34;15.80;99.90
29855;DHT22;16733;48.738;9.106;2023-03-21T11:46:07;15.80;99.90
29855;DHT22;16733;48.738;9.106;2023-03-21T11:48:42;15.80;99.90
29855;DHT22;16733;48.738;9.106;2023-03-21T11:53:48;15.80;99.90
29855;DHT22;16733;48.738;9.106;2023-03-21T11:56:36;15.90;99.90
29855;DHT22;16733;48.738;9.106;2023-03-21T12:08:44;15.80;99.90
29855;DHT22;16733;48.738;9.106;2023-03-21T12:13:53;15.80;99.90
29855;DHT22;16733;48.738;9.106;2023-03-21T12:16:39;15.70;99.90
29855;DHT22;16733;48.738;9.106;2023-03-21T12:21:53;15.80;99.90
29855;DHT22;16733;48.738;9.106;2023-03-21T12:25:04;15.80;99.90
29855;DHT22;16733;48.738;9.106;2023-03-21T12:27:34;15.90;99.90
29855;DHT22;16733;48.738;9.106;2023-03-21T12:32:51;16.00;99.90
29855;DHT22;16733;48.738;9.106;2023-03-21T12:43:34;16.00;99.90
29855;DHT22;16733;48.738;9.106;2023-03-21T12:46:05;16.10;99.90
29855;DHT22;16733;48.738;9.106;2023-03-21T12:51:13;16.20;99.90
29855;DHT22;16733;48.738;9.106;2023-03-21T13:01:27;16.60;98.20
29855;DHT22;16733;48.738;9.106;2023-03-21T13:06:47;16.70;98.10
29855;DHT22;16733;48.738;9.106;2023-03-21T13:15:57;17.10;99.80
29855;DHT22;16733;48.738;9.106;2023-03-21T13:18:51;17.20;99.10
29855;DHT22;16733;48.738;9.106;2023-03-21T13:24:49;17.20;98.00
29855;DHT22;16733;48.738;9.106;2023-03-21T13:27:33;17.20;98.40
29855;DHT22;16733;48.738;9.106;2023-03-21T13:30:00;17.10;97.20
29855;DHT22;16733;48.738;9.106;2023-03-21T13:36:03;17.40;96.20
29855;DHT22;16733;48.738;9.106;2023-03-21T13:38:49;17.50;97.50
29855;DHT22;16733;48.738;9.106;2023-03-21T13:41:26;17.50;96.50
29855;DHT22;16733;48.738;9.106;2023-03-21T13:56:27;17.40;94.30
29855;DHT22;16733;48.738;9.106;2023-03-21T14:04:38;17.20;94.20
29855;DHT22;16733;48.738;9.106;2023-03-21T14:07:07;17.10;94.50
29855;DHT22;16733;48.738;9.106;2023-03-21T14:12:56;17.00;94.00
29855;DHT22;16733;48.738;9.106;2023-03-21T14:15:25;17.00;96.30
29855;DHT22;16733;48.738;9.106;2023-03-21T14:17:54;16.90;95.70
29855;DHT22;16733;48.738;9.106;2023-03-21T14:20:31;16.90;95.50
29855;DHT22;16733;48.738;9.106;2023-03-21T14:22:57;16.90;95.20
29855;DHT22;16733;48.738;9.106;2023-03-21T14:25:31;16.90;95.80
29855;DHT22;16733;48.738;9.106;2023-03-21T14:27:59;16.90;95.20
29855;DHT22;16733;48.738;9.106;2023-03-21T14:30:37;16.90;95.00
29855;DHT22;16733;48.738;9.106;2023-03-21T14:33:24;16.90;93.90
29855;DHT22;16733;48.738;9.106;2023-03-21T14:35:54;16.90;94.20
29855;DHT22;16733;48.738;9.106;2023-03-21T14:38:25;16.90;95.00
29855;DHT22;16733;48.738;9.106;2023-03-21T14:40:53;16.90;94.70
29855;DHT22;16733;48.738;9.106;2023-03-21T14:43:21;16.90;94.40
29855;DHT22;16733;48.738;9.106;2023-03-21T14:45:49;16.80;94.60
29855;DHT22;16733;48.738;9.106;2023-03-21T14:48:15;16.90;95.10
29855;DHT22;16733;48.738;9.106;2023-03-21T14:50:53;16.80;95.20
29855;DHT22;16733;48.738;9.106;2023-03-21T14:56:44;16.90;94.80
29855;DHT22;16733;48.738;9.106;2023-03-21T14:59:15;16.90;96.90
29855;DHT22;16733;48.738;9.106;2023-03-21T15:07:34;16.90;96.10
29855;DHT22;16733;48.738;9.106;2023-03-21T15:13:25;17.00;95.20
29855;DHT22;16733;48.738;9.106;2023-03-21T15:15:52;17.10;96.90
29855;DHT22;16733;48.738;9.106;2023-03-21T15:18:25;17.10;96.40
29855;DHT22;16733;48.738;9.106;2023-03-21T15:24:29;17.30;95.50
29855;DHT22;16733;48.738;9.106;2023-03-21T15:30:24;17.20;93.90
29855;DHT22;16733;48.738;9.106;2023-03-21T15:35:56;17.00;98.30
29855;DHT22;16733;48.738;9.106;2023-03-21T15:38:39;16.80;96.50
29855;DHT22;16733;48.738;9.106;2023-03-21T15:44:28;16.60;96.10
29855;DHT22;16733;48.738;9.106;2023-03-21T15:46:54;16.30;95.10
29855;DHT22;16733;48.738;9.106;2023-03-21T15:49:33;16.10;93.80
29855;DHT22;16733;48.738;9.106;2023-03-21T15:52:13;15.90;92.70
29855;DHT22;16733;48.738;9.106;2023-03-21T15:58:09;15.50;93.30
29855;DHT22;16733;48.738;9.106;2023-03-21T16:03:29;15.20;93.90
29855;DHT22;16733;48.738;9.106;2023-03-21T16:09:18;14.90;92.90
29855;DHT22;16733;48.738;9.106;2023-03-21T16:11:50;14.90;95.00
29855;DHT22;16733;48.738;9.106;2023-03-21T16:14:17;14.80;94.90
29855;DHT22;16733;48.738;9.106;2023-03-21T16:20:19;14.70;94.40
29855;DHT22;16733;48.738;9.106;2023-03-21T16:23:00;14.50;94.70
29855;DHT22;16733;48.738;9.106;2023-03-21T16:25:28;14.50;95.00
29855;DHT22;16733;48.738;9.106;2023-03-21T16:27:54;14.40;95.00
29855;DHT22;16733;48.738;9.106;2023-03-21T16:30:21;14.40;95.50
29855;DHT22;16733;48.738;9.106;2023-03-21T16:32:48;14.40;95.70
29855;DHT22;16733;48.738;9.106;2023-03-21T16:38:18;14.30;95.60
29855;DHT22;16733;48.738;9.106;2023-03-21T16:40:43;14.30;96.50
29855;DHT22;16733;48.738;9.106;2023-03-21T16:43:10;14.20;96.50
29855;DHT22;16733;48.738;9.106;2023-03-21T16:45:35;14.20;96.40
29855;DHT22;16733;48.738;9.106;2023-03-21T16:48:02;14.20;96.10
29855;DHT22;16733;48.738;9.106;2023-03-21T16:50:38;14.10;96.30
29855;DHT22;16733;48.738;9.106;2023-03-21T16:53:04;14.10;96.00
29855;DHT22;16733;48.738;9.106;2023-03-21T16:55:31;14.10;97.10
29855;DHT22;16733;48.738;9.106;2023-03-21T16:57:58;14.00;96.70
29855;DHT22;16733;48.738;9.106;2023-03-21T17:03:47;13.90;96.20
29855;DHT22;16733;48.738;9.106;2023-03-21T17:06:18;14.00;98.00
29855;DHT22;16733;48.738;9.106;2023-03-21T17:12:10;14.00;97.80
29855;DHT22;16733;48.738;9.106;2023-03-21T17:14:39;14.00;99.20
29855;DHT22;16733;48.738;9.106;2023-03-21T17:17:08;14.00;99.50
29855;DHT22;16733;48.738;9.106;2023-03-21T17:19:34;14.10;99.30
29855;DHT22;16733;48.738;9.106;2023-03-21T17:21:59;14.00;99.20
29855;DHT22;16733;48.738;9.106;2023-03-21T17:24:25;14.00;99.20
29855;DHT22;16733;48.738;9.106;2023-03-21T17:26:50;14.00;99.20
29855;DHT22;16733;48.738;9.106;2023-03-21T17:29:16;13.90;98.90
29855;DHT22;16733;48.738;9.106;2023-03-21T17:31:42;13.90;98.80
29855;DHT22;16733;48.738;9.106;2023-03-21T17:34:12;13.90;98.80
29855;DHT22;16733;48.738;9.106;2023-03-21T17:36:39;13.90;99.40
29855;DHT22;16733;48.738;9.106;2023-03-21T17:39:07;13.80;99.20
29855;DHT22;16733;48.738;9.106;2023-03-21T17:41:34;13.80;99.10
29855;DHT22;16733;48.738;9.106;2023-03-21T17:43:59;13.80;99.00
29855;DHT22;16733;48.738;9.106;2023-03-21T17:49:47;13.70;99.10
29855;DHT22;16733;48.738;9.106;2023-03-21T17:52:13;13.70;99.90
29855;DHT22;16733;48.738;9.106;2023-03-21T17:54:39;13.70;99.70
29855;DHT22;16733;48.738;9.106;2023-03-21T17:57:05;13.70;99.90
29855;DHT22;16733;48.738;9.106;2023-03-21T17:59:30;13.70;99.90
29855;DHT22;16733;48.738;9.106;2023-03-21T18:01:56;13.70;99.90
29855;DHT22;16733;48.738;9.106;2023-03-21T18:04:21;13.70;99.90
29855;DHT22;16733;48.738;9.106;2023-03-21T18:06:47;13.60;99.80
29855;DHT22;16733;48.738;9.106;2023-03-21T18:12:35;13.50;99.90
29855;DHT22;16733;48.738;9.106;2023-03-21T18:15:01;13.50;99.90
29855;DHT22;16733;48.738;9.106;2023-03-21T18:17:28;13.50;99.90
29855;DHT22;16733;48.738;9.106;2023-03-21T18:19:53;13.50;99.90
29855;DHT22;16733;48.738;9.106;2023-03-21T18:22:19;13.50;99.90
29855;DHT22;16733;48.738;9.106;2023-03-21T18:24:45;13.50;99.90
29855;DHT22;16733;48.738;9.106;2023-03-21T18:27:11;13.50;99.90
29855;DHT22;16733;48.738;9.106;2023-03-21T18:29:37;13.50;99.90
29855;DHT22;16733;48.738;9.106;2023-03-21T18:32:04;13.50;99.90
29855;DHT22;16733;48.738;9.106;2023-03-21T18:37:51;13.50;99.90
29855;DHT22;16733;48.738;9.106;2023-03-21T18:43:39;13.40;99.90
29855;DHT22;16733;48.738;9.106;2023-03-21T18:46:06;13.30;99.90
29855;DHT22;16733;48.738;9.106;2023-03-21T18:48:32;13.30;99.90
29855;DHT22;16733;48.738;9.106;2023-03-21T18:50:58;13.30;99.90
29855;DHT22;16733;48.738;9.106;2023-03-21T18:53:23;13.30;99.90
29855;DHT22;16733;48.738;9.106;2023-03-21T18:55:49;13.30;99.90
29855;DHT22;16733;48.738;9.106;2023-03-21T18:58:15;13.30;99.90
29855;DHT22;16733;48.738;9.106;2023-03-21T19:00:41;13.40;99.90
29855;DHT22;16733;48.738;9.106;2023-03-21T19:03:08;13.40;99.90
29855;DHT22;16733;48.738;9.106;2023-03-21T19:05:36;13.40;99.90
29855;DHT22;16733;48.738;9.106;2023-03-21T19:08:05;13.40;99.90
29855;DHT22;16733;48.738;9.106;2023-03-21T19:10:31;13.40;99.90
29855;DHT22;16733;48.738;9.106;2023-03-21T19:12:56;13.40;99.90
29855;DHT22;16733;48.738;9.106;2023-03-21T19:15:23;13.40;99.90
29855;DHT22;16733;48.738;9.106;2023-03-21T19:21:11;13.40;99.90
29855;DHT22;16733;48.738;9.106;2023-03-21T19:23:36;13.30;99.90
29855;DHT22;16733;48.738;9.106;2023-03-21T19:26:02;13.20;99.90
29855;DHT22;16733;48.738;9.106;2023-03-21T19:28:28;13.20;99.90
29855;DHT22;16733;48.738;9.106;2023-03-21T19:30:53;13.10;99.90
29855;DHT22;16733;48.738;9.106;2023-03-21T19:40:07;13.10;99.90
29855;DHT22;16733;48.738;9.106;2023-03-21T19:42:33;13.10;99.90
29855;DHT22;16733;48.738;9.106;2023-03-21T19:48:23;13.10;99.90
29855;DHT22;16733;48.738;9.106;2023-03-21T19:50:49;13.00;99.90
29855;DHT22;16733;48.738;9.106;2023-03-21T19:56:37;13.00;99.90
29855;DHT22;16733;48.738;9.106;2023-03-21T19:59:02;13.00;99.90
29855;DHT22;16733;48.738;9.106;2023-03-21T20:01:29;13.00;99.90
29855;DHT22;16733;48.738;9.106;2023-03-21T20:04:10;13.00;99.90
29855;DHT22;16733;48.738;9.106;2023-03-21T20:06:36;13.00;99.90
29855;DHT22;16733;48.738;9.106;2023-03-21T20:09:03;12.90;99.90
29855;DHT22;16733;48.738;9.106;2023-03-21T20:11:29;12.90;99.90
29855;DHT22;16733;48.738;9.106;2023-03-21T20:13:55;12.90;99.90
29855;DHT22;16733;48.738;9.106;2023-03-21T20:19:42;12.90;99.90
29855;DHT22;16733;48.738;9.106;2023-03-21T20:22:08;12.90;99.90
29855;DHT22;16733;48.738;9.106;2023-03-21T20:27:56;12.90;99.90
29855;DHT22;16733;48.738;9.106;2023-03-21T20:30:21;12.80;99.90
29855;DHT22;16733;48.738;9.106;2023-03-21T20:36:09;12.70;99.90
29855;DHT22;16733;48.738;9.106;2023-03-21T20:38:35;12.60;99.90
29855;DHT22;16733;48.738;9.106;2023-03-21T20:41:03;12.60;99.90
29855;DHT22;16733;48.738;9.106;2023-03-21T20:43:29;12.60;99.90
29855;DHT22;16733;48.738;9.106;2023-03-21T20:46:13;12.70;99.90
29855;DHT22;16733;48.738;9.106;2023-03-21T20:48:40;12.70;99.90
29855;DHT22;16733;48.738;9.106;2023-03-21T20:51:08;12.60;99.90
29855;DHT22;16733;48.738;9.106;2023-03-21T20:53:38;12.60;99.90
29855;DHT22;16733;48.738;9.106;2023-03-21T20:59:26;12.60;99.90
29855;DHT22;16733;48.738;9.106;2023-03-21T21:01:53;12.60;99.90
29855;DHT22;16733;48.738;9.106;2023-03-21T21:04:18;12.70;99.90
29855;DHT22;16733;48.738;9.106;2023-03-21T21:06:51;12.60;99.90
29855;DHT22;16733;48.738;9.106;2023-03-21T21:09:16;12.60;99.90
29855;DHT22;16733;48.738;9.106;2023-03-21T21:11:42;12.60;99.90
29855;DHT22;16733;48.738;9.106;2023-03-21T21:14:07;12.60;99.90
29855;DHT22;16733;48.738;9.106;2023-03-21T21:19:55;12.60;99.90
29855;DHT22;16733;48.738;9.106;2023-03-21T21:22:21;12.60;99.90
29855;DHT22;16733;48.738;9.106;2023-03-21T21:24:46;12.60;99.90
29855;DHT22;16733;48.738;9.106;2023-03-21T21:27:12;12.50;99.90
29855;DHT22;16733;48.738;9.106;2023-03-21T21:33:00;12.40;99.90